Apple Springs, TX

4:01 PM CDT on September 01, 2014 (GMT -0500)
RAWS LUFKIN TX US | Change Station
CLOSE
Current Station
Personal Weather Station
Location: Lufkin, TX
Elevation: 154 ft
Nearby Weather Stations

Elev 154 ft 31.31 °N, 94.83 °W | Updated 58 minutes ago

Partly Cloudy
Partly Cloudy
94 °F
Feels Like 103 °F
N
5
Wind Variable Wind from SSE
Gusts 15.0 mph

Today
High -- | Low -- °F
--% Chance of Precip.
Yesterday
High -- | Low -- °F
Precip. -- in
6:55 AM 7:43 PM
Waxing Crescent, 44% visible
Pressure 29.90 in
Visibility 10.0 miles
Clouds Few 4600 ft
Few 5500 ft
Scattered Clouds 7000 ft
Heat Index 103 °F
Dew Point 72 °F
Humidity 50%
Rainfall 0.00 in
Snow Depth Not available.
UV 5 out of 12
Pollen 6.40 out of 12
Air Quality Not available.
Flu Activity Not available.
METAR KLFK 012053Z AUTO 13010KT 10SM FEW046 FEW055 SCT070 36/23 A2991 RMK AO2 SLP125 T03560228 58022

More Conditions Fewer Conditions

Pressure 29.90 in
Visibility 10.0 miles
Clouds Few 4600 ft
Few 5500 ft
Scattered Clouds 7000 ft
Heat Index 103 °F
Dew Point 72 °F
Humidity 50%
Rainfall 0.00 in
Snow Depth Not available.
UV 5 out of 12
Pollen 6.40 out of 12
Air Quality Not available.
Flu Activity Not available.
METAR KLFK 012053Z AUTO 13010KT 10SM FEW046 FEW055 SCT070 36/23 A2991 RMK AO2 SLP125 T03560228 58022

More Conditions Fewer Conditions

10-Day Weather Forecast

Almanac

Astronomy

Sep. 01, 2014 Rise Set
Actual Time 6:55 AM CDT 7:43 PM CDT
Civil Twilight 6:31 AM CDT 8:07 PM CDT
Nautical Twilight 6:02 AM CDT 8:37 PM CDT
Astronomical Twilight 5:32 AM CDT 9:06 PM CDT
Moon 1:16 PM CDT No Moon Set
Length of Visible Light 13h 36m
Length of Day
12h 47m
Tomorrow will be 1m 50s shorter.
Waxing Crescent, 44% of the Moon is Illuminated
Today
Waxing Crescent
Sep 2
First Quarter
Sep 8
Full
Sep 15
Last Quarter
Sep 24
New

Today's Extremes

State Highs State Lows

Community

WunderPhotos

Upload Photos

1,749,407 photos uploaded!

WunderBlogs® & News

Nearby

Snow Depth

Station Depth Elevation
No new snow has been reported.

Earthquake Activity

City Distance Mag. Time & Date
No recent earthquake activity has been reported nearby.
Minimum magnitude displayed is 2.5.

Coastal Water Temperatures

Place Temperature
No Stations Reporting

Nearby Weather Stations